Vandenberg Air Force Base
KVBG : now visible

Airfield :











YOU CAN JOIN US ON...

 
LOGIN :

Register | Disclaimer

   EN    FR    IT 

 









Legend :    VFR   Marginal VFR   IFR   Intensive IFR   Very Intensive IFR
Visi :
Ceiling :
>= 8 km
>= 3000ft
5 to 8 km
1000 to 3000 ft
1500m to 5 km
500 to 1000 ft
800 to 1500m
200 to 500 ft
< 800m
< 200 ft
Symbols :   Thunderstorms  Fog  Heavy snow  Heavy precipitations  Wind > 20 kt






- Airport Elevation : 369 ft


KVBG - Vandenberg Air Force Base

CURRENT METAR :
  • 041558Z 36013KT 4SM BR OVC002 13/13 A3003 RMK AO2A VIS S 1 3/4 DZE1547 SLP172 T01290126

EXPIRED METARs :
  • 041458Z 36010KT 1/2SM R30/P6000FT -DZ FG VV001 12/12 A3003 RMK SLP172 60001 T01190116 51011
  • 041359Z COR 35012KT 1/4SM R30/1400FT -DZ FG VV001 12/12 A3001 RMK AO2A SLP165 P0000 T01190116 COR 1402

TAF TAF KVBG
Valid from the 04 at 14:00 until the 05 at 20:00 UTC


041400Z 0414/0520 35009KT 0400 FG VV001 QNH3000INS
TEMPO 0414/0416 0800 -DZ FG
BECMG 0415/0416 34009KT 3200 BR OVC002 QNH3002INS
BECMG 0416/0417 34010KT 9999 NSW OVC004 QNH3004INS
BECMG 0417/0418 34010G15KT 9999 BKN006 QNH3003INS
BECMG 0419/0420 33012G18KT 9999 SCT008 QNH3001INS
BECMG 0422/0423 33015G25KT 9999 BKN006 520006 QNH2998INS
BECMG 0501/0502 34012KT 9999 OVC004 QNH2997INS
BECMG 0503/0504 34009KT 4800 BR OVC003 QNH2996INS
BECMG 0507/0508 34006KT 0800 FG VV002 QNH2997INS
BECMG 0509/0510 35006KT 0400 -DZ FG VV001 QNH2999INS
BECMG 0515/0516 34009KT 3200 BR OVC002 QNH3002INS
BECMG 0516/0517 33012KT 9999 NSW OVC004 QNH3003INS
BECMG 0518/0519 33010G15KT 9999 BKN006 QNH3001INS TX19/0420Z TN12/0514Z
KZLA FIR / North America



MET'MAP, your aeronautical weather chart ! - Copyright ORBIFLY December 2007 - Disclaimer

ORBIFLY MET'MAP TEAM :

Programming & Development : Alexandra Zaïnal
Concept & original design : Baudouin d'Aumeries
Assistance for programming : Marc-Olivier Méhu
Technical & hardware support : Manuel Goepfert

Contact : metmap@orbifly.com




SOURCES & CREDITS :

   NOAA       Earth
Advisory